sensor_id;sensor_type;location;lat;lon;timestamp;temperature;humidity
20463;DHT22;10390;53.566;9.980;2023-11-19T00:02:19;23.20;1.00
20463;DHT22;10390;53.566;9.980;2023-11-19T00:04:44;23.20;1.00
20463;DHT22;10390;53.566;9.980;2023-11-19T00:07:10;23.20;1.00
20463;DHT22;10390;53.566;9.980;2023-11-19T00:09:37;23.20;1.00
20463;DHT22;10390;53.566;9.980;2023-11-19T00:12:05;23.20;1.00
20463;DHT22;10390;53.566;9.980;2023-11-19T00:14:31;23.10;1.00
20463;DHT22;10390;53.566;9.980;2023-11-19T00:16:56;23.10;1.00
20463;DHT22;10390;53.566;9.980;2023-11-19T00:19:22;23.10;1.00
20463;DHT22;10390;53.566;9.980;2023-11-19T00:21:48;23.00;1.00
20463;DHT22;10390;53.566;9.980;2023-11-19T00:24:13;23.10;1.00
20463;DHT22;10390;53.566;9.980;2023-11-19T00:26:42;23.10;1.00
20463;DHT22;10390;53.566;9.980;2023-11-19T00:29:07;23.10;1.00
20463;DHT22;10390;53.566;9.980;2023-11-19T00:31:34;23.00;1.00
20463;DHT22;10390;53.566;9.980;2023-11-19T00:34:00;23.00;1.00
20463;DHT22;10390;53.566;9.980;2023-11-19T00:36:27;23.00;1.00
20463;DHT22;10390;53.566;9.980;2023-11-19T00:38:53;23.00;1.00
20463;DHT22;10390;53.566;9.980;2023-11-19T00:41:19;23.00;1.00
20463;DHT22;10390;53.566;9.980;2023-11-19T00:43:45;22.90;1.00
20463;DHT22;10390;53.566;9.980;2023-11-19T00:46:10;22.90;1.00
20463;DHT22;10390;53.566;9.980;2023-11-19T00:48:42;22.90;1.00
20463;DHT22;10390;53.566;9.980;2023-11-19T00:51:07;22.90;1.00
20463;DHT22;10390;53.566;9.980;2023-11-19T00:53:33;22.90;1.00
20463;DHT22;10390;53.566;9.980;2023-11-19T00:55:59;22.90;1.00
20463;DHT22;10390;53.566;9.980;2023-11-19T00:58:25;22.80;1.00
20463;DHT22;10390;53.566;9.980;2023-11-19T01:00:51;22.80;1.00
20463;DHT22;10390;53.566;9.980;2023-11-19T01:03:17;22.90;1.00
20463;DHT22;10390;53.566;9.980;2023-11-19T01:05:42;22.80;1.00
20463;DHT22;10390;53.566;9.980;2023-11-19T01:08:10;22.80;1.00
20463;DHT22;10390;53.566;9.980;2023-11-19T01:10:37;22.80;1.00
20463;DHT22;10390;53.566;9.980;2023-11-19T01:13:02;22.80;1.00
20463;DHT22;10390;53.566;9.980;2023-11-19T01:15:31;22.80;1.00
20463;DHT22;10390;53.566;9.980;2023-11-19T01:17:57;22.70;1.00
20463;DHT22;10390;53.566;9.980;2023-11-19T01:20:22;22.70;1.00
20463;DHT22;10390;53.566;9.980;2023-11-19T01:22:50;22.70;1.00
20463;DHT22;10390;53.566;9.980;2023-11-19T01:25:16;22.70;1.00
20463;DHT22;10390;53.566;9.980;2023-11-19T01:27:41;22.70;1.00
20463;DHT22;10390;53.566;9.980;2023-11-19T01:30:07;22.70;1.00
20463;DHT22;10390;53.566;9.980;2023-11-19T01:32:35;22.70;1.00
20463;DHT22;10390;53.566;9.980;2023-11-19T01:35:02;22.70;1.00
20463;DHT22;10390;53.566;9.980;2023-11-19T01:37:28;22.70;1.00
20463;DHT22;10390;53.566;9.980;2023-11-19T01:39:54;22.60;1.00
20463;DHT22;10390;53.566;9.980;2023-11-19T01:42:20;22.60;1.00
20463;DHT22;10390;53.566;9.980;2023-11-19T01:44:58;22.60;1.00
20463;DHT22;10390;53.566;9.980;2023-11-19T01:47:25;22.60;1.00
20463;DHT22;10390;53.566;9.980;2023-11-19T01:49:51;22.60;1.00
20463;DHT22;10390;53.566;9.980;2023-11-19T01:52:18;22.60;1.00
20463;DHT22;10390;53.566;9.980;2023-11-19T01:54:44;22.60;1.00
20463;DHT22;10390;53.566;9.980;2023-11-19T01:57:10;22.60;1.00
20463;DHT22;10390;53.566;9.980;2023-11-19T01:59:36;22.50;1.00
20463;DHT22;10390;53.566;9.980;2023-11-19T02:02:02;22.50;1.00
20463;DHT22;10390;53.566;9.980;2023-11-19T02:04:27;22.50;1.00
20463;DHT22;10390;53.566;9.980;2023-11-19T02:06:56;22.50;1.00
20463;DHT22;10390;53.566;9.980;2023-11-19T02:09:23;22.50;1.00
20463;DHT22;10390;53.566;9.980;2023-11-19T02:11:49;22.50;1.00
20463;DHT22;10390;53.566;9.980;2023-11-19T02:14:17;22.50;1.00
20463;DHT22;10390;53.566;9.980;2023-11-19T02:16:43;22.50;1.00
20463;DHT22;10390;53.566;9.980;2023-11-19T02:19:09;22.50;1.00
20463;DHT22;10390;53.566;9.980;2023-11-19T02:21:36;22.50;1.00
20463;DHT22;10390;53.566;9.980;2023-11-19T02:24:06;22.50;1.00
20463;DHT22;10390;53.566;9.980;2023-11-19T02:29:08;22.40;1.00
20463;DHT22;10390;53.566;9.980;2023-11-19T02:31:33;22.40;1.00
20463;DHT22;10390;53.566;9.980;2023-11-19T02:34:00;22.40;1.00
20463;DHT22;10390;53.566;9.980;2023-11-19T02:36:27;22.40;1.00
20463;DHT22;10390;53.566;9.980;2023-11-19T02:38:53;22.40;1.00
20463;DHT22;10390;53.566;9.980;2023-11-19T02:41:19;22.40;1.00
20463;DHT22;10390;53.566;9.980;2023-11-19T02:43:44;22.40;1.00
20463;DHT22;10390;53.566;9.980;2023-11-19T02:46:10;22.40;1.00
20463;DHT22;10390;53.566;9.980;2023-11-19T02:48:36;22.40;1.00
20463;DHT22;10390;53.566;9.980;2023-11-19T02:51:02;22.40;1.00
20463;DHT22;10390;53.566;9.980;2023-11-19T02:53:35;22.40;1.00
20463;DHT22;10390;53.566;9.980;2023-11-19T02:56:00;22.40;1.00
20463;DHT22;10390;53.566;9.980;2023-11-19T02:58:31;22.40;1.00
20463;DHT22;10390;53.566;9.980;2023-11-19T03:00:57;22.40;1.00
20463;DHT22;10390;53.566;9.980;2023-11-19T03:03:26;22.30;1.00
20463;DHT22;10390;53.566;9.980;2023-11-19T03:06:04;22.40;1.00
20463;DHT22;10390;53.566;9.980;2023-11-19T03:08:30;22.40;1.00
20463;DHT22;10390;53.566;9.980;2023-11-19T03:10:56;22.30;1.00
20463;DHT22;10390;53.566;9.980;2023-11-19T03:13:21;22.30;1.00
20463;DHT22;10390;53.566;9.980;2023-11-19T03:15:47;22.30;1.00
20463;DHT22;10390;53.566;9.980;2023-11-19T03:18:13;22.30;1.00
20463;DHT22;10390;53.566;9.980;2023-11-19T03:20:38;22.30;1.00
20463;DHT22;10390;53.566;9.980;2023-11-19T03:23:04;22.30;1.00
20463;DHT22;10390;53.566;9.980;2023-11-19T03:25:31;22.30;1.00
20463;DHT22;10390;53.566;9.980;2023-11-19T03:28:00;22.30;1.00
20463;DHT22;10390;53.566;9.980;2023-11-19T03:30:27;22.30;1.00
20463;DHT22;10390;53.566;9.980;2023-11-19T03:32:56;22.20;1.00
20463;DHT22;10390;53.566;9.980;2023-11-19T03:35:23;22.20;1.00
20463;DHT22;10390;53.566;9.980;2023-11-19T03:37:49;22.20;1.00
20463;DHT22;10390;53.566;9.980;2023-11-19T03:40:15;22.20;1.00
20463;DHT22;10390;53.566;9.980;2023-11-19T03:42:40;22.20;1.00
20463;DHT22;10390;53.566;9.980;2023-11-19T03:45:07;22.20;1.00
20463;DHT22;10390;53.566;9.980;2023-11-19T03:47:34;22.20;1.00
20463;DHT22;10390;53.566;9.980;2023-11-19T03:50:00;22.20;1.00
20463;DHT22;10390;53.566;9.980;2023-11-19T03:52:25;22.20;1.00
20463;DHT22;10390;53.566;9.980;2023-11-19T03:54:52;22.20;1.00
20463;DHT22;10390;53.566;9.980;2023-11-19T03:57:19;22.20;1.00
20463;DHT22;10390;53.566;9.980;2023-11-19T03:59:45;22.20;1.00
20463;DHT22;10390;53.566;9.980;2023-11-19T04:02:11;22.20;1.00
20463;DHT22;10390;53.566;9.980;2023-11-19T04:04:36;22.20;1.00
20463;DHT22;10390;53.566;9.980;2023-11-19T04:07:04;22.10;1.00
20463;DHT22;10390;53.566;9.980;2023-11-19T04:09:31;22.20;1.00
20463;DHT22;10390;53.566;9.980;2023-11-19T04:11:58;22.10;1.00
20463;DHT22;10390;53.566;9.980;2023-11-19T04:14:24;22.10;1.00
20463;DHT22;10390;53.566;9.980;2023-11-19T04:16:50;22.10;1.00
20463;DHT22;10390;53.566;9.980;2023-11-19T04:19:17;22.20;1.00
20463;DHT22;10390;53.566;9.980;2023-11-19T04:21:42;22.10;1.00
20463;DHT22;10390;53.566;9.980;2023-11-19T04:24:11;22.10;1.00
20463;DHT22;10390;53.566;9.980;2023-11-19T04:26:42;22.10;1.00
20463;DHT22;10390;53.566;9.980;2023-11-19T04:29:15;22.10;1.00
20463;DHT22;10390;53.566;9.980;2023-11-19T04:31:45;22.10;1.00
20463;DHT22;10390;53.566;9.980;2023-11-19T04:34:11;22.10;1.00
20463;DHT22;10390;53.566;9.980;2023-11-19T04:36:37;22.10;1.00
20463;DHT22;10390;53.566;9.980;2023-11-19T04:39:03;22.10;1.00
20463;DHT22;10390;53.566;9.980;2023-11-19T04:41:35;22.10;1.00
20463;DHT22;10390;53.566;9.980;2023-11-19T04:44:01;22.10;1.00
20463;DHT22;10390;53.566;9.980;2023-11-19T04:46:26;22.10;1.00
20463;DHT22;10390;53.566;9.980;2023-11-19T04:48:52;22.10;1.00
20463;DHT22;10390;53.566;9.980;2023-11-19T04:51:18;22.10;1.00
20463;DHT22;10390;53.566;9.980;2023-11-19T04:53:43;22.10;1.00
20463;DHT22;10390;53.566;9.980;2023-11-19T04:56:13;22.10;1.00
20463;DHT22;10390;53.566;9.980;2023-11-19T04:58:39;22.10;1.00
20463;DHT22;10390;53.566;9.980;2023-11-19T05:01:04;22.10;1.00
20463;DHT22;10390;53.566;9.980;2023-11-19T05:03:33;22.10;1.00
20463;DHT22;10390;53.566;9.980;2023-11-19T05:05:59;22.10;1.00
20463;DHT22;10390;53.566;9.980;2023-11-19T05:08:24;22.10;1.00
20463;DHT22;10390;53.566;9.980;2023-11-19T05:10:50;22.10;1.00
20463;DHT22;10390;53.566;9.980;2023-11-19T05:13:16;22.10;1.00
20463;DHT22;10390;53.566;9.980;2023-11-19T05:15:42;22.10;1.00
20463;DHT22;10390;53.566;9.980;2023-11-19T05:18:07;22.10;1.00
20463;DHT22;10390;53.566;9.980;2023-11-19T05:20:34;22.10;1.00
20463;DHT22;10390;53.566;9.980;2023-11-19T05:22:59;22.10;1.00
20463;DHT22;10390;53.566;9.980;2023-11-19T05:25:28;22.10;1.00
20463;DHT22;10390;53.566;9.980;2023-11-19T05:27:54;22.00;1.00
20463;DHT22;10390;53.566;9.980;2023-11-19T05:30:19;22.00;1.00
20463;DHT22;10390;53.566;9.980;2023-11-19T05:32:45;22.00;1.00
20463;DHT22;10390;53.566;9.980;2023-11-19T05:35:11;22.00;1.00
20463;DHT22;10390;53.566;9.980;2023-11-19T05:37:37;22.00;1.00
20463;DHT22;10390;53.566;9.980;2023-11-19T05:40:03;22.00;1.00
20463;DHT22;10390;53.566;9.980;2023-11-19T05:42:31;22.10;1.00
20463;DHT22;10390;53.566;9.980;2023-11-19T05:44:57;22.10;1.00
20463;DHT22;10390;53.566;9.980;2023-11-19T05:47:23;22.00;1.00
20463;DHT22;10390;53.566;9.980;2023-11-19T05:49:48;22.00;1.00
20463;DHT22;10390;53.566;9.980;2023-11-19T05:52:14;22.00;1.00
20463;DHT22;10390;53.566;9.980;2023-11-19T05:54:40;22.00;1.00
20463;DHT22;10390;53.566;9.980;2023-11-19T05:57:06;22.10;1.00
20463;DHT22;10390;53.566;9.980;2023-11-19T05:59:35;22.00;1.00
20463;DHT22;10390;53.566;9.980;2023-11-19T06:02:02;22.10;1.00
20463;DHT22;10390;53.566;9.980;2023-11-19T06:04:28;22.00;1.00
20463;DHT22;10390;53.566;9.980;2023-11-19T06:06:53;22.00;1.00
20463;DHT22;10390;53.566;9.980;2023-11-19T06:09:21;22.00;1.00
20463;DHT22;10390;53.566;9.980;2023-11-19T06:11:49;22.10;1.00
20463;DHT22;10390;53.566;9.980;2023-11-19T06:14:16;22.10;1.00
20463;DHT22;10390;53.566;9.980;2023-11-19T06:16:42;22.10;1.00
20463;DHT22;10390;53.566;9.980;2023-11-19T06:19:07;22.10;1.00
20463;DHT22;10390;53.566;9.980;2023-11-19T06:21:33;22.00;1.00
20463;DHT22;10390;53.566;9.980;2023-11-19T06:24:01;22.00;1.00
20463;DHT22;10390;53.566;9.980;2023-11-19T06:26:27;22.00;1.00
20463;DHT22;10390;53.566;9.980;2023-11-19T06:28:52;22.10;1.00
20463;DHT22;10390;53.566;9.980;2023-11-19T06:31:18;22.10;1.00
20463;DHT22;10390;53.566;9.980;2023-11-19T06:33:43;22.00;1.00
20463;DHT22;10390;53.566;9.980;2023-11-19T06:36:09;22.10;1.00
20463;DHT22;10390;53.566;9.980;2023-11-19T06:38:35;22.00;1.00
20463;DHT22;10390;53.566;9.980;2023-11-19T06:41:01;22.10;1.00
20463;DHT22;10390;53.566;9.980;2023-11-19T06:43:27;22.10;1.00
20463;DHT22;10390;53.566;9.980;2023-11-19T06:45:53;22.00;1.00
20463;DHT22;10390;53.566;9.980;2023-11-19T06:48:19;22.00;1.00
20463;DHT22;10390;53.566;9.980;2023-11-19T06:50:45;22.10;1.00
20463;DHT22;10390;53.566;9.980;2023-11-19T06:53:11;22.10;1.00
20463;DHT22;10390;53.566;9.980;2023-11-19T06:55:36;22.10;1.00
20463;DHT22;10390;53.566;9.980;2023-11-19T06:58:02;22.00;1.00
20463;DHT22;10390;53.566;9.980;2023-11-19T07:00:29;22.00;1.00
20463;DHT22;10390;53.566;9.980;2023-11-19T07:02:55;22.00;1.00
20463;DHT22;10390;53.566;9.980;2023-11-19T07:05:21;22.10;1.00
20463;DHT22;10390;53.566;9.980;2023-11-19T07:07:46;22.10;1.00
20463;DHT22;10390;53.566;9.980;2023-11-19T07:10:12;22.00;1.00
20463;DHT22;10390;53.566;9.980;2023-11-19T07:12:38;22.10;1.00
20463;DHT22;10390;53.566;9.980;2023-11-19T07:15:04;22.10;1.00
20463;DHT22;10390;53.566;9.980;2023-11-19T07:17:31;22.10;1.00
20463;DHT22;10390;53.566;9.980;2023-11-19T07:19:56;22.10;1.00
20463;DHT22;10390;53.566;9.980;2023-11-19T07:22:25;22.10;1.00
20463;DHT22;10390;53.566;9.980;2023-11-19T07:24:51;22.00;1.00
20463;DHT22;10390;53.566;9.980;2023-11-19T07:27:19;22.10;1.00
20463;DHT22;10390;53.566;9.980;2023-11-19T07:29:44;22.10;1.00
20463;DHT22;10390;53.566;9.980;2023-11-19T07:32:10;22.00;1.00
20463;DHT22;10390;53.566;9.980;2023-11-19T07:34:36;22.10;1.00
20463;DHT22;10390;53.566;9.980;2023-11-19T07:37:01;22.10;1.00
20463;DHT22;10390;53.566;9.980;2023-11-19T07:39:29;22.10;1.00
20463;DHT22;10390;53.566;9.980;2023-11-19T07:41:55;22.10;1.00
20463;DHT22;10390;53.566;9.980;2023-11-19T07:44:20;22.10;1.00
20463;DHT22;10390;53.566;9.980;2023-11-19T07:46:47;22.10;1.00
20463;DHT22;10390;53.566;9.980;2023-11-19T07:49:13;22.10;1.00
20463;DHT22;10390;53.566;9.980;2023-11-19T07:51:39;22.10;1.00
20463;DHT22;10390;53.566;9.980;2023-11-19T07:54:05;22.10;1.00
20463;DHT22;10390;53.566;9.980;2023-11-19T07:56:34;22.10;1.00
20463;DHT22;10390;53.566;9.980;2023-11-19T07:59:03;22.00;1.00
20463;DHT22;10390;53.566;9.980;2023-11-19T08:01:29;22.10;1.00
20463;DHT22;10390;53.566;9.980;2023-11-19T08:03:55;22.10;1.00
20463;DHT22;10390;53.566;9.980;2023-11-19T08:06:20;22.10;1.00
20463;DHT22;10390;53.566;9.980;2023-11-19T08:08:46;22.10;1.00
20463;DHT22;10390;53.566;9.980;2023-11-19T08:11:13;22.10;1.00
20463;DHT22;10390;53.566;9.980;2023-11-19T08:13:39;22.10;1.00
20463;DHT22;10390;53.566;9.980;2023-11-19T08:16:05;22.10;1.00
20463;DHT22;10390;53.566;9.980;2023-11-19T08:18:31;22.10;1.00
20463;DHT22;10390;53.566;9.980;2023-11-19T08:20:56;22.10;1.00
20463;DHT22;10390;53.566;9.980;2023-11-19T08:23:23;22.10;1.00
20463;DHT22;10390;53.566;9.980;2023-11-19T08:25:51;22.00;1.00
20463;DHT22;10390;53.566;9.980;2023-11-19T08:28:16;22.00;1.00
20463;DHT22;10390;53.566;9.980;2023-11-19T08:30:42;21.90;1.00
20463;DHT22;10390;53.566;9.980;2023-11-19T08:33:09;21.90;1.00
20463;DHT22;10390;53.566;9.980;2023-11-19T08:35:35;21.90;1.00
20463;DHT22;10390;53.566;9.980;2023-11-19T08:38:01;21.90;1.00
20463;DHT22;10390;53.566;9.980;2023-11-19T08:40:27;22.00;1.00
20463;DHT22;10390;53.566;9.980;2023-11-19T08:42:53;22.10;1.00
20463;DHT22;10390;53.566;9.980;2023-11-19T08:45:18;22.10;1.00
20463;DHT22;10390;53.566;9.980;2023-11-19T08:47:44;22.10;1.00
20463;DHT22;10390;53.566;9.980;2023-11-19T08:50:11;22.20;1.00
20463;DHT22;10390;53.566;9.980;2023-11-19T08:52:37;22.20;1.00
20463;DHT22;10390;53.566;9.980;2023-11-19T08:55:02;22.20;1.00
20463;DHT22;10390;53.566;9.980;2023-11-19T08:57:31;22.30;1.00
20463;DHT22;10390;53.566;9.980;2023-11-19T08:59:56;22.30;1.00
20463;DHT22;10390;53.566;9.980;2023-11-19T09:02:22;22.30;1.00
20463;DHT22;10390;53.566;9.980;2023-11-19T09:04:47;22.40;1.00
20463;DHT22;10390;53.566;9.980;2023-11-19T09:07:13;22.40;1.00
20463;DHT22;10390;53.566;9.980;2023-11-19T09:09:39;22.40;1.00
20463;DHT22;10390;53.566;9.980;2023-11-19T09:12:05;22.50;1.00
20463;DHT22;10390;53.566;9.980;2023-11-19T09:14:30;22.50;1.00
20463;DHT22;10390;53.566;9.980;2023-11-19T09:16:56;22.60;1.00
20463;DHT22;10390;53.566;9.980;2023-11-19T09:19:23;22.60;1.00
20463;DHT22;10390;53.566;9.980;2023-11-19T09:21:49;22.60;1.00
20463;DHT22;10390;53.566;9.980;2023-11-19T09:24:15;22.60;1.00
20463;DHT22;10390;53.566;9.980;2023-11-19T09:26:41;22.70;1.00
20463;DHT22;10390;53.566;9.980;2023-11-19T09:29:10;22.70;1.00
20463;DHT22;10390;53.566;9.980;2023-11-19T09:31:38;22.70;1.00
20463;DHT22;10390;53.566;9.980;2023-11-19T09:34:04;22.80;1.00
20463;DHT22;10390;53.566;9.980;2023-11-19T09:36:30;22.80;1.00
20463;DHT22;10390;53.566;9.980;2023-11-19T09:38:55;22.80;1.00
20463;DHT22;10390;53.566;9.980;2023-11-19T09:41:21;22.80;1.00
20463;DHT22;10390;53.566;9.980;2023-11-19T09:43:47;22.80;1.00
20463;DHT22;10390;53.566;9.980;2023-11-19T09:46:14;22.90;1.00
20463;DHT22;10390;53.566;9.980;2023-11-19T09:48:41;22.90;1.00
20463;DHT22;10390;53.566;9.980;2023-11-19T09:51:09;22.90;1.00
20463;DHT22;10390;53.566;9.980;2023-11-19T09:53:35;22.90;1.00
20463;DHT22;10390;53.566;9.980;2023-11-19T09:56:03;23.00;1.00
20463;DHT22;10390;53.566;9.980;2023-11-19T09:58:32;23.00;1.00
20463;DHT22;10390;53.566;9.980;2023-11-19T10:01:00;23.00;1.00
20463;DHT22;10390;53.566;9.980;2023-11-19T10:03:35;23.00;1.00
20463;DHT22;10390;53.566;9.980;2023-11-19T10:06:08;23.00;1.00
20463;DHT22;10390;53.566;9.980;2023-11-19T10:08:37;23.10;1.00
20463;DHT22;10390;53.566;9.980;2023-11-19T10:11:05;23.00;1.00
20463;DHT22;10390;53.566;9.980;2023-11-19T10:13:31;23.10;1.00
20463;DHT22;10390;53.566;9.980;2023-11-19T10:16:12;23.10;1.00
20463;DHT22;10390;53.566;9.980;2023-11-19T10:18:46;23.10;1.00
20463;DHT22;10390;53.566;9.980;2023-11-19T10:21:12;23.10;1.00
20463;DHT22;10390;53.566;9.980;2023-11-19T10:23:52;23.10;1.00
20463;DHT22;10390;53.566;9.980;2023-11-19T10:26:19;23.10;1.00
20463;DHT22;10390;53.566;9.980;2023-11-19T10:28:46;23.10;1.00
20463;DHT22;10390;53.566;9.980;2023-11-19T10:31:17;23.00;1.00
20463;DHT22;10390;53.566;9.980;2023-11-19T10:33:43;23.10;1.00
20463;DHT22;10390;53.566;9.980;2023-11-19T10:36:11;23.10;1.00
20463;DHT22;10390;53.566;9.980;2023-11-19T10:38:40;23.00;1.00
20463;DHT22;10390;53.566;9.980;2023-11-19T10:41:06;22.90;1.00
20463;DHT22;10390;53.566;9.980;2023-11-19T10:43:45;23.00;1.00
20463;DHT22;10390;53.566;9.980;2023-11-19T10:46:12;22.90;1.00
20463;DHT22;10390;53.566;9.980;2023-11-19T10:48:39;22.90;1.00
20463;DHT22;10390;53.566;9.980;2023-11-19T10:51:06;23.00;1.00
20463;DHT22;10390;53.566;9.980;2023-11-19T10:53:37;23.00;1.00
20463;DHT22;10390;53.566;9.980;2023-11-19T10:56:10;23.00;1.00
20463;DHT22;10390;53.566;9.980;2023-11-19T10:58:36;23.00;1.00
20463;DHT22;10390;53.566;9.980;2023-11-19T11:01:13;23.00;1.00
20463;DHT22;10390;53.566;9.980;2023-11-19T11:03:42;23.00;1.00
20463;DHT22;10390;53.566;9.980;2023-11-19T11:06:08;23.10;1.00
20463;DHT22;10390;53.566;9.980;2023-11-19T11:08:36;23.10;1.00
20463;DHT22;10390;53.566;9.980;2023-11-19T11:11:03;23.10;1.00
20463;DHT22;10390;53.566;9.980;2023-11-19T11:13:31;23.10;1.00
20463;DHT22;10390;53.566;9.980;2023-11-19T11:15:58;23.20;1.00
20463;DHT22;10390;53.566;9.980;2023-11-19T11:18:24;23.20;1.00
20463;DHT22;10390;53.566;9.980;2023-11-19T11:20:57;23.20;1.00
20463;DHT22;10390;53.566;9.980;2023-11-19T11:29:24;23.30;1.00
20463;DHT22;10390;53.566;9.980;2023-11-19T11:37:34;23.30;1.00
20463;DHT22;10390;53.566;9.980;2023-11-19T11:40:03;23.30;1.00
20463;DHT22;10390;53.566;9.980;2023-11-19T11:42:38;23.40;1.00
20463;DHT22;10390;53.566;9.980;2023-11-19T11:45:05;23.40;1.00
20463;DHT22;10390;53.566;9.980;2023-11-19T11:55:27;23.50;1.00
20463;DHT22;10390;53.566;9.980;2023-11-19T11:57:55;23.50;1.00
20463;DHT22;10390;53.566;9.980;2023-11-19T12:00:37;23.50;1.00
20463;DHT22;10390;53.566;9.980;2023-11-19T12:03:05;23.50;1.00
20463;DHT22;10390;53.566;9.980;2023-11-19T12:05:31;23.60;1.00
20463;DHT22;10390;53.566;9.980;2023-11-19T12:08:04;23.60;1.00
20463;DHT22;10390;53.566;9.980;2023-11-19T12:10:36;23.60;1.00
20463;DHT22;10390;53.566;9.980;2023-11-19T12:13:05;23.60;1.00
20463;DHT22;10390;53.566;9.980;2023-11-19T12:15:32;23.60;1.00
20463;DHT22;10390;53.566;9.980;2023-11-19T12:17:58;23.60;1.00
20463;DHT22;10390;53.566;9.980;2023-11-19T12:20:25;23.70;1.00
20463;DHT22;10390;53.566;9.980;2023-11-19T12:22:52;23.70;1.00
20463;DHT22;10390;53.566;9.980;2023-11-19T12:25:18;23.70;1.00
20463;DHT22;10390;53.566;9.980;2023-11-19T12:27:51;23.70;1.00
20463;DHT22;10390;53.566;9.980;2023-11-19T12:30:25;23.70;1.00
20463;DHT22;10390;53.566;9.980;2023-11-19T12:32:52;23.70;1.00
20463;DHT22;10390;53.566;9.980;2023-11-19T12:35:21;23.70;1.00
20463;DHT22;10390;53.566;9.980;2023-11-19T12:37:49;23.70;1.00
20463;DHT22;10390;53.566;9.980;2023-11-19T12:40:22;23.70;1.00
20463;DHT22;10390;53.566;9.980;2023-11-19T12:42:50;23.70;1.00
20463;DHT22;10390;53.566;9.980;2023-11-19T12:45:16;23.70;1.00
20463;DHT22;10390;53.566;9.980;2023-11-19T12:47:45;23.70;1.00
20463;DHT22;10390;53.566;9.980;2023-11-19T12:50:13;23.70;1.00
20463;DHT22;10390;53.566;9.980;2023-11-19T12:52:39;23.80;1.00
20463;DHT22;10390;53.566;9.980;2023-11-19T12:57:49;23.70;1.00
20463;DHT22;10390;53.566;9.980;2023-11-19T13:00:23;23.70;1.00
20463;DHT22;10390;53.566;9.980;2023-11-19T13:02:51;23.70;1.00
20463;DHT22;10390;53.566;9.980;2023-11-19T13:07:46;23.60;1.00
20463;DHT22;10390;53.566;9.980;2023-11-19T13:10:12;23.60;1.00
20463;DHT22;10390;53.566;9.980;2023-11-19T13:12:39;23.50;1.00
20463;DHT22;10390;53.566;9.980;2023-11-19T13:15:05;23.60;1.00
20463;DHT22;10390;53.566;9.980;2023-11-19T13:17:30;23.50;1.00
20463;DHT22;10390;53.566;9.980;2023-11-19T13:19:56;23.60;1.00
20463;DHT22;10390;53.566;9.980;2023-11-19T13:22:22;23.60;1.00
20463;DHT22;10390;53.566;9.980;2023-11-19T13:24:48;23.60;1.00
20463;DHT22;10390;53.566;9.980;2023-11-19T13:27:14;23.60;1.00
20463;DHT22;10390;53.566;9.980;2023-11-19T13:29:39;23.50;1.00
20463;DHT22;10390;53.566;9.980;2023-11-19T13:32:05;23.50;1.00
20463;DHT22;10390;53.566;9.980;2023-11-19T13:34:31;23.60;1.00
20463;DHT22;10390;53.566;9.980;2023-11-19T13:36:56;23.60;1.00
20463;DHT22;10390;53.566;9.980;2023-11-19T13:39:22;23.60;1.00
20463;DHT22;10390;53.566;9.980;2023-11-19T13:41:49;23.50;1.00
20463;DHT22;10390;53.566;9.980;2023-11-19T13:44:16;23.60;1.00
20463;DHT22;10390;53.566;9.980;2023-11-19T13:46:45;23.60;1.00
20463;DHT22;10390;53.566;9.980;2023-11-19T13:49:11;23.60;1.00
20463;DHT22;10390;53.566;9.980;2023-11-19T13:51:37;23.60;1.00
20463;DHT22;10390;53.566;9.980;2023-11-19T13:54:03;23.60;1.00
20463;DHT22;10390;53.566;9.980;2023-11-19T13:56:28;23.60;1.00
20463;DHT22;10390;53.566;9.980;2023-11-19T13:58:54;23.60;1.00
20463;DHT22;10390;53.566;9.980;2023-11-19T14:01:19;23.60;1.00
20463;DHT22;10390;53.566;9.980;2023-11-19T14:03:45;23.60;1.00
20463;DHT22;10390;53.566;9.980;2023-11-19T14:06:10;23.60;1.00
20463;DHT22;10390;53.566;9.980;2023-11-19T14:08:38;23.60;1.00
20463;DHT22;10390;53.566;9.980;2023-11-19T14:11:03;23.60;1.00
20463;DHT22;10390;53.566;9.980;2023-11-19T14:13:30;23.60;1.00
20463;DHT22;10390;53.566;9.980;2023-11-19T14:15:56;23.60;1.00
20463;DHT22;10390;53.566;9.980;2023-11-19T14:18:21;23.60;1.00
20463;DHT22;10390;53.566;9.980;2023-11-19T14:20:48;23.60;1.00
20463;DHT22;10390;53.566;9.980;2023-11-19T14:23:13;23.60;1.00
20463;DHT22;10390;53.566;9.980;2023-11-19T14:25:39;23.60;1.00
20463;DHT22;10390;53.566;9.980;2023-11-19T14:28:05;23.60;1.00
20463;DHT22;10390;53.566;9.980;2023-11-19T14:30:31;23.50;1.00
20463;DHT22;10390;53.566;9.980;2023-11-19T14:32:56;23.50;1.00
20463;DHT22;10390;53.566;9.980;2023-11-19T14:35:22;23.50;1.00
20463;DHT22;10390;53.566;9.980;2023-11-19T14:37:48;23.50;1.00
20463;DHT22;10390;53.566;9.980;2023-11-19T14:40:14;23.50;1.00
20463;DHT22;10390;53.566;9.980;2023-11-19T14:42:39;23.50;1.00
20463;DHT22;10390;53.566;9.980;2023-11-19T14:45:06;23.50;1.00
20463;DHT22;10390;53.566;9.980;2023-11-19T14:47:32;23.50;1.00
20463;DHT22;10390;53.566;9.980;2023-11-19T14:49:58;23.50;1.00
20463;DHT22;10390;53.566;9.980;2023-11-19T14:52:23;23.50;1.00
20463;DHT22;10390;53.566;9.980;2023-11-19T14:54:49;23.50;1.00
20463;DHT22;10390;53.566;9.980;2023-11-19T14:57:16;23.50;1.00
20463;DHT22;10390;53.566;9.980;2023-11-19T14:59:42;23.50;1.00
20463;DHT22;10390;53.566;9.980;2023-11-19T15:02:08;23.50;1.00
20463;DHT22;10390;53.566;9.980;2023-11-19T15:04:33;23.50;1.00
20463;DHT22;10390;53.566;9.980;2023-11-19T15:07:00;23.50;1.00
20463;DHT22;10390;53.566;9.980;2023-11-19T15:09:26;23.40;1.00
20463;DHT22;10390;53.566;9.980;2023-11-19T15:11:55;23.40;1.00
20463;DHT22;10390;53.566;9.980;2023-11-19T15:14:21;23.30;1.00
20463;DHT22;10390;53.566;9.980;2023-11-19T15:16:47;23.30;1.00
20463;DHT22;10390;53.566;9.980;2023-11-19T15:19:13;23.30;1.00
20463;DHT22;10390;53.566;9.980;2023-11-19T15:21:40;23.30;1.00
20463;DHT22;10390;53.566;9.980;2023-11-19T15:24:06;23.30;1.00
20463;DHT22;10390;53.566;9.980;2023-11-19T15:26:36;23.30;1.00
20463;DHT22;10390;53.566;9.980;2023-11-19T15:29:05;23.30;1.00
20463;DHT22;10390;53.566;9.980;2023-11-19T15:31:31;23.40;1.00
20463;DHT22;10390;53.566;9.980;2023-11-19T15:33:57;23.30;1.00
20463;DHT22;10390;53.566;9.980;2023-11-19T15:36:23;23.40;1.00
20463;DHT22;10390;53.566;9.980;2023-11-19T15:38:49;23.40;1.00
20463;DHT22;10390;53.566;9.980;2023-11-19T15:41:15;23.40;1.00
20463;DHT22;10390;53.566;9.980;2023-11-19T15:43:41;23.40;1.00
20463;DHT22;10390;53.566;9.980;2023-11-19T15:46:10;23.50;1.00
20463;DHT22;10390;53.566;9.980;2023-11-19T15:48:36;23.50;1.00
20463;DHT22;10390;53.566;9.980;2023-11-19T15:51:02;23.50;1.00
20463;DHT22;10390;53.566;9.980;2023-11-19T15:53:29;23.60;1.00
20463;DHT22;10390;53.566;9.980;2023-11-19T15:55:56;23.60;1.00
20463;DHT22;10390;53.566;9.980;2023-11-19T15:58:22;23.60;1.00
20463;DHT22;10390;53.566;9.980;2023-11-19T16:00:47;23.60;1.00
20463;DHT22;10390;53.566;9.980;2023-11-19T16:03:13;23.70;1.00
20463;DHT22;10390;53.566;9.980;2023-11-19T16:05:40;23.70;1.00
20463;DHT22;10390;53.566;9.980;2023-11-19T16:08:06;23.70;1.00
20463;DHT22;10390;53.566;9.980;2023-11-19T16:10:33;23.80;1.00